createdAt,value
2018-06-14T00:00:40.847Z,13.63
2018-06-14T00:01:40.592Z,13.60
2018-06-14T00:02:40.554Z,13.58
2018-06-14T00:03:40.572Z,13.54
2018-06-14T00:04:40.456Z,13.53
2018-06-14T00:05:40.410Z,13.55
2018-06-14T00:06:40.363Z,13.53
2018-06-14T00:07:40.316Z,13.57
2018-06-14T00:08:40.272Z,13.53
2018-06-14T00:09:40.465Z,13.47
2018-06-14T00:10:40.178Z,13.47
2018-06-14T00:11:40.130Z,13.51
2018-06-14T00:12:40.085Z,13.53
2018-06-14T00:13:40.038Z,13.60
2018-06-14T00:14:39.993Z,13.57
2018-06-14T00:15:39.947Z,13.43
2018-06-14T00:16:39.900Z,13.51
2018-06-14T00:17:39.853Z,13.47
2018-06-14T00:18:39.952Z,13.55
2018-06-14T00:19:39.764Z,13.39
2018-06-14T00:20:39.714Z,13.49
2018-06-14T00:21:39.770Z,13.40
2018-06-14T00:22:39.621Z,13.40
2018-06-14T00:23:39.574Z,13.32
2018-06-14T00:24:39.530Z,13.29
2018-06-14T00:25:39.671Z,13.29
2018-06-14T00:26:39.437Z,13.32
2018-06-14T00:27:39.390Z,13.30
2018-06-14T00:28:39.408Z,13.36
2018-06-14T00:29:39.299Z,13.26
2018-06-14T00:30:39.253Z,13.29
2018-06-14T00:31:39.204Z,13.29
2018-06-14T00:32:39.172Z,13.30
2018-06-14T00:33:39.114Z,13.30
2018-06-14T00:34:39.067Z,13.36
2018-06-14T00:35:39.020Z,13.27
2018-06-14T00:36:38.973Z,13.32
2018-06-14T00:37:38.927Z,13.32
2018-06-14T00:38:39.075Z,13.40
2018-06-14T00:39:38.833Z,13.39
2018-06-14T00:40:38.791Z,13.42
2018-06-14T00:41:38.777Z,13.39
2018-06-14T00:42:38.696Z,13.46
2018-06-14T00:43:38.649Z,13.46
2018-06-14T00:44:38.605Z,13.43
2018-06-14T00:45:38.576Z,13.43
2018-06-14T00:46:38.514Z,13.46
2018-06-14T00:47:38.669Z,13.36
2018-06-14T00:48:38.420Z,13.51
2018-06-14T00:49:38.372Z,13.39
2018-06-14T00:50:38.428Z,13.36
2018-06-14T00:51:38.280Z,13.32
2018-06-14T00:52:38.233Z,13.39
2018-06-14T00:53:38.187Z,13.40
2018-06-14T00:54:38.141Z,13.30
2018-06-14T00:55:38.094Z,13.39
2018-06-14T00:56:38.284Z,13.32
2018-06-14T00:57:38.002Z,13.29
2018-06-14T00:58:37.956Z,13.36
2018-06-14T00:59:37.907Z,13.30
2018-06-14T01:00:37.862Z,13.35
2018-06-14T01:01:37.818Z,13.36
2018-06-14T01:02:37.776Z,13.40
2018-06-14T01:03:37.722Z,13.29
2018-06-14T01:04:37.677Z,13.38
2018-06-14T01:05:37.631Z,13.30
2018-06-14T01:06:37.592Z,13.36
2018-06-14T01:07:37.696Z,13.30
2018-06-14T01:08:37.492Z,13.30
2018-06-14T01:09:37.449Z,13.29
2018-06-14T01:10:37.399Z,13.29
2018-06-14T01:11:37.353Z,13.36
2018-06-14T01:12:37.311Z,13.35
2018-06-14T01:13:37.261Z,13.30
2018-06-14T01:14:37.220Z,13.29
2018-06-14T01:15:37.167Z,13.20
2018-06-14T01:16:37.289Z,13.35
2018-06-14T01:17:37.076Z,13.26
2018-06-14T01:18:37.031Z,13.24
2018-06-14T01:19:36.986Z,13.17
2018-06-14T01:20:36.941Z,13.20
2018-06-14T01:21:36.891Z,13.20
2018-06-14T01:22:36.845Z,13.24
2018-06-14T01:23:36.798Z,13.24
2018-06-14T01:24:36.753Z,13.24
2018-06-14T01:25:36.905Z,13.19
2018-06-14T01:26:36.659Z,13.23
2018-06-14T01:27:36.611Z,13.19
2018-06-14T01:28:36.566Z,13.20
2018-06-14T01:29:36.523Z,13.21
2018-06-14T01:30:36.474Z,13.14
2018-06-14T01:31:36.426Z,13.17
2018-06-14T01:32:36.432Z,13.21
2018-06-14T01:33:36.333Z,13.17
2018-06-14T01:34:36.288Z,13.24
2018-06-14T01:35:36.242Z,13.16
2018-06-14T01:36:36.194Z,13.24
2018-06-14T01:37:36.150Z,13.21
2018-06-14T01:38:36.312Z,13.16
2018-06-14T01:39:36.055Z,13.24
2018-06-14T01:40:36.010Z,13.13
2018-06-14T01:41:36.051Z,13.23
2018-06-14T01:42:35.919Z,13.24
2018-06-14T01:43:35.870Z,13.21
2018-06-14T01:44:37.497Z,13.20
2018-06-14T01:45:35.781Z,13.26
2018-06-14T01:46:35.737Z,13.21
2018-06-14T01:47:35.706Z,13.17
2018-06-14T01:48:35.749Z,13.14
2018-06-14T01:49:35.814Z,13.20
2018-06-14T01:50:35.549Z,13.19
2018-06-14T01:51:35.500Z,13.17
2018-06-14T01:52:35.467Z,13.20
2018-06-14T01:53:35.411Z,13.20
2018-06-14T01:54:35.526Z,13.23
2018-06-14T01:55:35.319Z,13.20
2018-06-14T01:56:35.273Z,13.19
2018-06-14T01:57:35.307Z,13.20
2018-06-14T01:58:35.179Z,13.21
2018-06-14T01:59:35.339Z,13.26
2018-06-14T02:00:35.086Z,13.17
2018-06-14T02:01:35.038Z,13.17
2018-06-14T02:02:34.999Z,13.17
2018-06-14T02:03:34.945Z,13.19
2018-06-14T02:04:35.137Z,13.19
2018-06-14T02:05:34.853Z,13.16
2018-06-14T02:06:34.807Z,13.17
2018-06-14T02:07:34.776Z,13.23
2018-06-14T02:08:34.714Z,13.19
2018-06-14T02:09:34.838Z,13.16
2018-06-14T02:10:34.621Z,13.16
2018-06-14T02:11:34.578Z,13.19
2018-06-14T02:12:34.542Z,13.23
2018-06-14T02:13:34.483Z,13.20
2018-06-14T02:14:34.651Z,13.19
2018-06-14T02:15:34.391Z,13.17
2018-06-14T02:16:34.345Z,13.23
2018-06-14T02:17:34.308Z,13.24
2018-06-14T02:18:34.252Z,13.27
2018-06-14T02:19:34.422Z,13.30
2018-06-14T02:20:34.159Z,13.21
2018-06-14T02:21:34.116Z,13.23
2018-06-14T02:22:34.079Z,13.20
2018-06-14T02:23:34.023Z,13.23
2018-06-14T02:24:34.134Z,13.20
2018-06-14T02:25:33.928Z,13.23
2018-06-14T02:26:33.881Z,13.21
2018-06-14T02:27:33.849Z,13.24
2018-06-14T02:28:33.788Z,13.16
2018-06-14T02:29:33.940Z,13.13
2018-06-14T02:30:33.696Z,13.21
2018-06-14T02:31:33.650Z,13.11
2018-06-14T02:32:33.609Z,13.14
2018-06-14T02:33:33.558Z,13.16
2018-06-14T02:34:33.749Z,13.14
2018-06-14T02:35:33.465Z,13.13
2018-06-14T02:36:33.418Z,13.23
2018-06-14T02:37:33.384Z,13.19
2018-06-14T02:38:33.325Z,13.24
2018-06-14T02:39:33.281Z,13.19
2018-06-14T02:40:33.239Z,13.23
2018-06-14T02:41:33.355Z,13.20
2018-06-14T02:42:33.139Z,13.21
2018-06-14T02:43:33.093Z,13.17
2018-06-14T02:44:33.049Z,13.20
2018-06-14T02:45:33.001Z,13.26
2018-06-14T02:46:32.955Z,13.17
2018-06-14T02:47:32.909Z,13.13
2018-06-14T02:48:33.055Z,13.19
2018-06-14T02:49:32.817Z,13.19
2018-06-14T02:50:32.774Z,13.24
2018-06-14T02:51:32.723Z,13.24
2018-06-14T02:52:32.676Z,13.23
2018-06-14T02:53:32.643Z,13.20
2018-06-14T02:54:32.585Z,13.24
2018-06-14T02:55:32.543Z,13.14
2018-06-14T02:56:32.493Z,13.14
2018-06-14T02:57:32.670Z,13.11
2018-06-14T02:58:32.401Z,13.08
2018-06-14T02:59:32.356Z,13.14
2018-06-14T03:00:32.306Z,13.11
2018-06-14T03:01:32.261Z,13.13
2018-06-14T03:02:32.220Z,13.14
2018-06-14T03:03:32.167Z,13.17
2018-06-14T03:04:32.369Z,13.19
2018-06-14T03:05:32.076Z,13.19
2018-06-14T03:06:32.031Z,13.13
2018-06-14T03:07:31.982Z,13.19
2018-06-14T03:08:31.936Z,13.20
2018-06-14T03:09:31.908Z,13.17
2018-06-14T03:10:31.844Z,13.20
2018-06-14T03:11:31.958Z,13.17
2018-06-14T03:12:31.751Z,13.17
2018-06-14T03:13:31.705Z,13.23
2018-06-14T03:14:31.669Z,13.21
2018-06-14T03:15:31.613Z,13.23
2018-06-14T03:16:31.584Z,13.14
2018-06-14T03:17:31.525Z,13.09
2018-06-14T03:18:31.682Z,13.23
2018-06-14T03:19:31.429Z,13.16
2018-06-14T03:20:31.449Z,13.14
2018-06-14T03:21:31.335Z,13.14
2018-06-14T03:22:31.289Z,13.11
2018-06-14T03:23:31.242Z,13.14
2018-06-14T03:24:31.271Z,13.13
2018-06-14T03:25:31.150Z,13.13
2018-06-14T03:26:31.103Z,13.11
2018-06-14T03:27:31.163Z,13.23
2018-06-14T03:28:31.011Z,13.14
2018-06-14T03:29:30.965Z,13.26
2018-06-14T03:30:32.034Z,13.26
2018-06-14T03:31:30.872Z,13.14
2018-06-14T03:32:30.860Z,13.17
2018-06-14T03:33:30.779Z,13.26
2018-06-14T03:34:30.733Z,13.11
2018-06-14T03:35:30.687Z,13.11
2018-06-14T03:36:30.886Z,13.11
2018-06-14T03:37:30.596Z,13.19
2018-06-14T03:38:30.548Z,13.14
2018-06-14T03:39:30.518Z,13.13
2018-06-14T03:40:30.454Z,13.09
2018-06-14T03:41:30.410Z,13.16
2018-06-14T03:42:30.362Z,13.21
2018-06-14T03:43:30.480Z,13.13
2018-06-14T03:44:30.276Z,13.19
2018-06-14T03:45:30.226Z,13.24
2018-06-14T03:46:30.295Z,13.20
2018-06-14T03:47:30.129Z,13.21
2018-06-14T03:48:30.086Z,13.20
2018-06-14T03:49:30.040Z,13.14
2018-06-14T03:50:30.194Z,13.17
2018-06-14T03:51:29.944Z,13.20
2018-06-14T03:52:29.898Z,13.11
2018-06-14T03:53:29.869Z,13.21
2018-06-14T03:54:29.803Z,13.13
2018-06-14T03:55:29.760Z,13.19
2018-06-14T03:56:29.714Z,13.24
2018-06-14T03:57:30.490Z,13.14
2018-06-14T03:58:29.693Z,13.16
2018-06-14T03:59:29.577Z,13.11
2018-06-14T04:00:29.545Z,13.11
2018-06-14T04:01:29.482Z,13.19
2018-06-14T04:02:29.440Z,13.14
2018-06-14T04:03:29.389Z,13.20
2018-06-14T04:04:29.342Z,13.11
2018-06-14T04:05:29.296Z,13.20
2018-06-14T04:06:29.248Z,13.21
2018-06-14T04:07:29.203Z,13.21
2018-06-14T04:08:29.159Z,13.14
2018-06-14T04:09:29.127Z,13.19
2018-06-14T04:10:29.089Z,13.20
2018-06-14T04:11:29.024Z,13.16
2018-06-14T04:12:28.971Z,13.24
2018-06-14T04:13:28.926Z,13.17
2018-06-14T04:14:28.879Z,13.17
2018-06-14T04:15:28.833Z,13.20
2018-06-14T04:16:28.803Z,13.26
2018-06-14T04:17:28.741Z,13.26
2018-06-14T04:18:28.725Z,13.26
2018-06-14T04:19:28.651Z,13.26
2018-06-14T04:20:28.650Z,13.21
2018-06-14T04:21:28.556Z,13.26
2018-06-14T04:22:28.508Z,13.27
2018-06-14T04:23:28.461Z,13.30
2018-06-14T04:24:28.416Z,13.23
2018-06-14T04:25:28.371Z,13.26
2018-06-14T04:26:28.325Z,13.24
2018-06-14T04:27:28.327Z,13.35
2018-06-14T04:28:28.231Z,13.32
2018-06-14T04:29:28.183Z,13.42
2018-06-14T04:30:28.142Z,13.39
2018-06-14T04:31:28.093Z,13.40
2018-06-14T04:32:28.052Z,13.46
2018-06-14T04:33:28.001Z,13.38
2018-06-14T04:34:27.954Z,13.45
2018-06-14T04:35:27.907Z,13.46
2018-06-14T04:36:27.864Z,13.46
2018-06-14T04:37:27.816Z,13.53
2018-06-14T04:38:27.777Z,13.60
2018-06-14T04:39:27.786Z,13.55
2018-06-14T04:40:27.679Z,13.51
2018-06-14T04:41:27.636Z,13.51
2018-06-14T04:42:27.588Z,13.47
2018-06-14T04:43:27.540Z,13.53
2018-06-14T04:44:27.495Z,13.55
2018-06-14T04:45:27.449Z,13.58
2018-06-14T04:46:27.402Z,13.57
2018-06-14T04:47:27.356Z,13.67
2018-06-14T04:48:27.320Z,13.61
2018-06-14T04:49:27.265Z,13.67
2018-06-14T04:50:27.218Z,13.68
2018-06-14T04:51:27.173Z,13.63
2018-06-14T04:52:27.127Z,13.53
2018-06-14T04:53:27.124Z,13.64
2018-06-14T04:54:27.040Z,13.63
2018-06-14T04:55:26.991Z,13.58
2018-06-14T04:56:26.944Z,13.61
2018-06-14T04:57:26.916Z,13.76
2018-06-14T04:58:26.850Z,13.68
2018-06-14T04:59:26.804Z,13.63
2018-06-14T05:00:26.760Z,13.64
2018-06-14T05:01:26.714Z,13.63
2018-06-14T05:02:26.722Z,13.71
2018-06-14T05:03:26.620Z,13.64
2018-06-14T05:04:27.543Z,13.61
2018-06-14T05:05:26.529Z,13.71
2018-06-14T05:06:26.484Z,13.75
2018-06-14T05:07:26.437Z,13.78
2018-06-14T05:08:26.390Z,13.83
2018-06-14T05:09:26.541Z,13.86
2018-06-14T05:10:26.301Z,13.78
2018-06-14T05:11:26.259Z,13.78
2018-06-14T05:12:26.223Z,13.86
2018-06-14T05:13:26.167Z,13.91
2018-06-14T05:14:26.345Z,13.86
2018-06-14T05:15:26.071Z,13.91
2018-06-14T05:16:26.081Z,13.90
2018-06-14T05:17:25.993Z,13.78
2018-06-14T05:18:25.935Z,13.83
2018-06-14T05:19:25.886Z,13.85
2018-06-14T05:20:25.846Z,13.83
2018-06-14T05:21:25.796Z,13.86
2018-06-14T05:22:25.814Z,13.93
2018-06-14T05:23:25.729Z,13.98
2018-06-14T05:24:25.663Z,13.93
2018-06-14T05:25:25.620Z,13.94
2018-06-14T05:26:25.582Z,14.00
2018-06-14T05:27:25.543Z,14.01
2018-06-14T05:28:25.475Z,14.03
2018-06-14T05:29:25.441Z,14.03
2018-06-14T05:30:25.398Z,14.08
2018-06-14T05:31:25.362Z,14.48
2018-06-14T05:32:25.301Z,14.69
2018-06-14T05:33:25.249Z,14.83
2018-06-14T05:34:25.204Z,15.26
2018-06-14T05:35:25.162Z,15.88
2018-06-14T05:36:25.123Z,16.34
2018-06-14T05:37:25.077Z,16.49
2018-06-14T05:38:25.023Z,16.46
2018-06-14T05:39:24.981Z,16.39
2018-06-14T05:40:24.933Z,16.26
2018-06-14T05:41:24.898Z,16.46
2018-06-14T05:42:24.868Z,16.14
2018-06-14T05:43:24.803Z,15.65
2018-06-14T05:44:24.753Z,15.51
2018-06-14T05:45:24.711Z,15.56
2018-06-14T05:46:24.682Z,16.09
2018-06-14T05:47:24.632Z,15.76
2018-06-14T05:48:24.580Z,16.13
2018-06-14T05:49:24.541Z,16.37
2018-06-14T05:50:24.495Z,16.62
2018-06-14T05:51:24.489Z,16.90
2018-06-14T05:52:24.486Z,16.69
2018-06-14T05:53:24.365Z,16.43
2018-06-14T05:54:24.317Z,16.10
2018-06-14T05:55:24.278Z,15.69
2018-06-14T05:56:24.240Z,15.77
2018-06-14T05:57:24.196Z,15.68
2018-06-14T05:58:24.199Z,15.98
2018-06-14T05:59:24.110Z,16.36
2018-06-14T06:00:24.086Z,16.79
2018-06-14T06:01:24.022Z,16.88
2018-06-14T06:02:23.986Z,16.62
2018-06-14T06:03:23.937Z,16.69
2018-06-14T06:04:23.897Z,16.65
2018-06-14T06:05:23.855Z,16.58
2018-06-14T06:06:23.811Z,16.88
2018-06-14T06:07:23.774Z,17.06
2018-06-14T06:08:23.728Z,16.88
2018-06-14T06:09:23.684Z,16.90
2018-06-14T06:10:23.643Z,16.95
2018-06-14T06:11:23.603Z,16.97
2018-06-14T06:12:23.561Z,16.76
2018-06-14T06:13:23.515Z,16.61
2018-06-14T06:14:23.475Z,16.21
2018-06-14T06:15:23.432Z,16.21
2018-06-14T06:16:23.390Z,16.16
2018-06-14T06:17:23.349Z,16.18
2018-06-14T06:18:23.305Z,16.24
2018-06-14T06:19:23.262Z,16.18
2018-06-14T06:20:23.220Z,16.03
2018-06-14T06:21:23.179Z,16.10
2018-06-14T06:22:23.136Z,16.09
2018-06-14T06:23:23.133Z,16.13
2018-06-14T06:24:23.048Z,16.22
2018-06-14T06:25:23.008Z,16.22
2018-06-14T06:26:23.033Z,16.17
2018-06-14T06:27:22.928Z,15.95
2018-06-14T06:28:22.877Z,15.99
2018-06-14T06:29:22.837Z,16.06
2018-06-14T06:30:22.798Z,16.18
2018-06-14T06:31:22.749Z,16.25
2018-06-14T06:32:22.712Z,16.28
2018-06-14T06:33:22.729Z,16.22
2018-06-14T06:34:22.622Z,16.44
2018-06-14T06:35:22.588Z,16.59
2018-06-14T06:37:40.803Z,16.44
